sensor_id;sensor_type;location;lat;lon;timestamp;P1;durP1;ratioP1;P2;durP2;ratioP2
3465;SDS011;1747;48.884;9.160;2023-06-10T00:01:32;6.90;;;6.20;;
3465;SDS011;1747;48.884;9.160;2023-06-10T00:04:01;6.28;;;5.68;;
3465;SDS011;1747;48.884;9.160;2023-06-10T00:06:29;10.45;;;6.43;;
3465;SDS011;1747;48.884;9.160;2023-06-10T00:09:00;9.20;;;6.22;;
3465;SDS011;1747;48.884;9.160;2023-06-10T00:11:29;6.45;;;5.85;;
3465;SDS011;1747;48.884;9.160;2023-06-10T00:13:56;9.95;;;5.65;;
3465;SDS011;1747;48.884;9.160;2023-06-10T00:16:23;7.07;;;5.93;;
3465;SDS011;1747;48.884;9.160;2023-06-10T00:18:51;8.23;;;5.72;;
3465;SDS011;1747;48.884;9.160;2023-06-10T00:21:20;6.78;;;6.07;;
3465;SDS011;1747;48.884;9.160;2023-06-10T00:23:49;7.25;;;6.55;;
3465;SDS011;1747;48.884;9.160;2023-06-10T00:26:16;7.05;;;6.00;;
3465;SDS011;1747;48.884;9.160;2023-06-10T00:28:43;7.55;;;6.80;;
3465;SDS011;1747;48.884;9.160;2023-06-10T00:31:10;6.78;;;6.05;;
3465;SDS011;1747;48.884;9.160;2023-06-10T00:33:37;7.93;;;6.70;;
3465;SDS011;1747;48.884;9.160;2023-06-10T00:36:05;8.27;;;6.93;;
3465;SDS011;1747;48.884;9.160;2023-06-10T00:38:32;6.88;;;6.18;;
3465;SDS011;1747;48.884;9.160;2023-06-10T00:40:59;6.88;;;6.15;;
3465;SDS011;1747;48.884;9.160;2023-06-10T00:43:26;6.00;;;5.32;;
3465;SDS011;1747;48.884;9.160;2023-06-10T00:45:53;8.27;;;6.50;;
3465;SDS011;1747;48.884;9.160;2023-06-10T00:48:20;8.30;;;5.90;;
3465;SDS011;1747;48.884;9.160;2023-06-10T00:50:47;7.25;;;5.95;;
3465;SDS011;1747;48.884;9.160;2023-06-10T00:53:16;6.53;;;5.85;;
3465;SDS011;1747;48.884;9.160;2023-06-10T00:55:43;6.68;;;5.80;;
3465;SDS011;1747;48.884;9.160;2023-06-10T00:58:10;6.95;;;5.45;;
3465;SDS011;1747;48.884;9.160;2023-06-10T01:00:37;6.70;;;5.20;;
3465;SDS011;1747;48.884;9.160;2023-06-10T01:03:04;7.30;;;5.70;;
3465;SDS011;1747;48.884;9.160;2023-06-10T01:05:32;5.72;;;5.10;;
3465;SDS011;1747;48.884;9.160;2023-06-10T01:08:01;8.15;;;5.75;;
3465;SDS011;1747;48.884;9.160;2023-06-10T01:10:46;6.30;;;5.15;;
3465;SDS011;1747;48.884;9.160;2023-06-10T01:13:16;9.68;;;5.60;;
3465;SDS011;1747;48.884;9.160;2023-06-10T01:15:43;6.57;;;5.85;;
3465;SDS011;1747;48.884;9.160;2023-06-10T01:18:11;6.28;;;5.57;;
3465;SDS011;1747;48.884;9.160;2023-06-10T01:20:40;7.05;;;6.20;;
3465;SDS011;1747;48.884;9.160;2023-06-10T01:23:09;7.28;;;5.53;;
3465;SDS011;1747;48.884;9.160;2023-06-10T01:25:37;6.15;;;5.18;;
3465;SDS011;1747;48.884;9.160;2023-06-10T01:28:07;6.05;;;5.45;;
3465;SDS011;1747;48.884;9.160;2023-06-10T01:30:40;6.40;;;5.50;;
3465;SDS011;1747;48.884;9.160;2023-06-10T01:33:12;6.40;;;5.32;;
3465;SDS011;1747;48.884;9.160;2023-06-10T01:35:43;8.95;;;5.38;;
3465;SDS011;1747;48.884;9.160;2023-06-10T01:38:12;5.32;;;4.82;;
3465;SDS011;1747;48.884;9.160;2023-06-10T01:40:41;6.15;;;5.40;;
3465;SDS011;1747;48.884;9.160;2023-06-10T01:43:09;6.57;;;5.10;;
3465;SDS011;1747;48.884;9.160;2023-06-10T01:45:36;8.00;;;5.25;;
3465;SDS011;1747;48.884;9.160;2023-06-10T01:48:02;4.97;;;4.50;;
3465;SDS011;1747;48.884;9.160;2023-06-10T01:50:29;5.40;;;4.80;;
3465;SDS011;1747;48.884;9.160;2023-06-10T01:52:57;5.72;;;4.63;;
3465;SDS011;1747;48.884;9.160;2023-06-10T01:55:25;8.55;;;5.25;;
3465;SDS011;1747;48.884;9.160;2023-06-10T01:57:52;5.70;;;4.03;;
3465;SDS011;1747;48.884;9.160;2023-06-10T02:00:19;5.30;;;4.80;;
3465;SDS011;1747;48.884;9.160;2023-06-10T02:02:46;5.25;;;4.70;;
3465;SDS011;1747;48.884;9.160;2023-06-10T02:05:13;7.88;;;5.20;;
3465;SDS011;1747;48.884;9.160;2023-06-10T02:07:39;5.13;;;4.57;;
3465;SDS011;1747;48.884;9.160;2023-06-10T02:10:07;8.60;;;4.38;;
3465;SDS011;1747;48.884;9.160;2023-06-10T02:12:35;6.88;;;4.57;;
3465;SDS011;1747;48.884;9.160;2023-06-10T02:15:02;5.68;;;4.50;;
3465;SDS011;1747;48.884;9.160;2023-06-10T02:17:29;5.13;;;4.30;;
3465;SDS011;1747;48.884;9.160;2023-06-10T02:19:57;5.15;;;4.55;;
3465;SDS011;1747;48.884;9.160;2023-06-10T02:22:25;5.20;;;4.50;;
3465;SDS011;1747;48.884;9.160;2023-06-10T02:24:51;4.70;;;4.22;;
3465;SDS011;1747;48.884;9.160;2023-06-10T02:27:18;5.57;;;4.43;;
3465;SDS011;1747;48.884;9.160;2023-06-10T02:29:47;5.80;;;4.38;;
3465;SDS011;1747;48.884;9.160;2023-06-10T02:32:13;4.35;;;3.95;;
3465;SDS011;1747;48.884;9.160;2023-06-10T02:34:40;4.65;;;4.20;;
3465;SDS011;1747;48.884;9.160;2023-06-10T02:37:08;4.90;;;4.40;;
3465;SDS011;1747;48.884;9.160;2023-06-10T02:39:35;5.20;;;4.40;;
3465;SDS011;1747;48.884;9.160;2023-06-10T02:42:02;5.18;;;4.40;;
3465;SDS011;1747;48.884;9.160;2023-06-10T02:44:29;4.65;;;4.15;;
3465;SDS011;1747;48.884;9.160;2023-06-10T02:46:57;7.03;;;5.03;;
3465;SDS011;1747;48.884;9.160;2023-06-10T02:49:24;5.78;;;4.45;;
3465;SDS011;1747;48.884;9.160;2023-06-10T02:51:52;5.07;;;4.35;;
3465;SDS011;1747;48.884;9.160;2023-06-10T02:54:19;5.82;;;4.47;;
3465;SDS011;1747;48.884;9.160;2023-06-10T02:56:47;5.03;;;4.00;;
3465;SDS011;1747;48.884;9.160;2023-06-10T02:59:14;7.07;;;4.85;;
3465;SDS011;1747;48.884;9.160;2023-06-10T03:01:41;6.03;;;4.53;;
3465;SDS011;1747;48.884;9.160;2023-06-10T03:04:09;7.25;;;3.90;;
3465;SDS011;1747;48.884;9.160;2023-06-10T03:06:38;5.63;;;4.10;;
3465;SDS011;1747;48.884;9.160;2023-06-10T03:09:05;6.55;;;3.88;;
3465;SDS011;1747;48.884;9.160;2023-06-10T03:11:33;4.68;;;4.22;;
3465;SDS011;1747;48.884;9.160;2023-06-10T03:14:00;5.15;;;4.32;;
3465;SDS011;1747;48.884;9.160;2023-06-10T03:16:27;6.00;;;4.30;;
3465;SDS011;1747;48.884;9.160;2023-06-10T03:18:55;5.63;;;4.53;;
3465;SDS011;1747;48.884;9.160;2023-06-10T03:21:23;5.43;;;4.65;;
3465;SDS011;1747;48.884;9.160;2023-06-10T03:23:50;6.85;;;4.60;;
3465;SDS011;1747;48.884;9.160;2023-06-10T03:26:17;5.85;;;4.93;;
3465;SDS011;1747;48.884;9.160;2023-06-10T03:28:46;5.57;;;4.78;;
3465;SDS011;1747;48.884;9.160;2023-06-10T03:31:13;6.90;;;4.72;;
3465;SDS011;1747;48.884;9.160;2023-06-10T03:33:41;5.40;;;4.78;;
3465;SDS011;1747;48.884;9.160;2023-06-10T03:36:08;5.78;;;4.60;;
3465;SDS011;1747;48.884;9.160;2023-06-10T03:38:36;4.93;;;4.20;;
3465;SDS011;1747;48.884;9.160;2023-06-10T03:41:03;5.90;;;4.65;;
3465;SDS011;1747;48.884;9.160;2023-06-10T03:43:30;5.85;;;4.78;;
3465;SDS011;1747;48.884;9.160;2023-06-10T03:45:57;4.60;;;4.18;;
3465;SDS011;1747;48.884;9.160;2023-06-10T03:48:24;5.10;;;3.97;;
3465;SDS011;1747;48.884;9.160;2023-06-10T03:50:51;6.97;;;4.72;;
3465;SDS011;1747;48.884;9.160;2023-06-10T03:53:17;6.20;;;4.70;;
3465;SDS011;1747;48.884;9.160;2023-06-10T03:55:46;5.50;;;4.43;;
3465;SDS011;1747;48.884;9.160;2023-06-10T03:58:13;6.55;;;4.75;;
3465;SDS011;1747;48.884;9.160;2023-06-10T04:00:40;5.43;;;4.85;;
3465;SDS011;1747;48.884;9.160;2023-06-10T04:03:07;4.93;;;4.40;;
3465;SDS011;1747;48.884;9.160;2023-06-10T04:05:39;6.50;;;4.60;;
3465;SDS011;1747;48.884;9.160;2023-06-10T04:08:06;5.88;;;4.68;;
3465;SDS011;1747;48.884;9.160;2023-06-10T04:10:33;5.40;;;4.72;;
3465;SDS011;1747;48.884;9.160;2023-06-10T04:13:01;6.80;;;4.82;;
3465;SDS011;1747;48.884;9.160;2023-06-10T04:15:29;5.45;;;4.70;;
3465;SDS011;1747;48.884;9.160;2023-06-10T04:17:57;5.20;;;4.30;;
3465;SDS011;1747;48.884;9.160;2023-06-10T04:20:24;6.15;;;4.85;;
3465;SDS011;1747;48.884;9.160;2023-06-10T04:22:51;8.05;;;5.05;;
3465;SDS011;1747;48.884;9.160;2023-06-10T04:25:18;5.25;;;4.63;;
3465;SDS011;1747;48.884;9.160;2023-06-10T04:27:45;5.20;;;4.47;;
3465;SDS011;1747;48.884;9.160;2023-06-10T04:30:14;4.43;;;4.00;;
3465;SDS011;1747;48.884;9.160;2023-06-10T04:32:41;4.93;;;4.43;;
3465;SDS011;1747;48.884;9.160;2023-06-10T04:35:08;7.22;;;4.38;;
3465;SDS011;1747;48.884;9.160;2023-06-10T04:37:37;6.88;;;4.53;;
3465;SDS011;1747;48.884;9.160;2023-06-10T04:40:05;6.63;;;4.45;;
3465;SDS011;1747;48.884;9.160;2023-06-10T04:42:32;7.60;;;4.47;;
3465;SDS011;1747;48.884;9.160;2023-06-10T04:44:59;5.32;;;4.45;;
3465;SDS011;1747;48.884;9.160;2023-06-10T04:47:27;5.43;;;4.78;;
3465;SDS011;1747;48.884;9.160;2023-06-10T04:49:58;5.25;;;4.75;;
3465;SDS011;1747;48.884;9.160;2023-06-10T04:52:25;7.10;;;5.47;;
3465;SDS011;1747;48.884;9.160;2023-06-10T04:54:52;5.75;;;5.10;;
3465;SDS011;1747;48.884;9.160;2023-06-10T04:57:19;6.25;;;5.13;;
3465;SDS011;1747;48.884;9.160;2023-06-10T04:59:46;7.13;;;5.10;;
3465;SDS011;1747;48.884;9.160;2023-06-10T05:02:13;6.00;;;4.97;;
3465;SDS011;1747;48.884;9.160;2023-06-10T05:04:41;7.50;;;5.53;;
3465;SDS011;1747;48.884;9.160;2023-06-10T05:07:08;8.65;;;4.85;;
3465;SDS011;1747;48.884;9.160;2023-06-10T05:09:35;6.43;;;4.85;;
3465;SDS011;1747;48.884;9.160;2023-06-10T05:12:02;6.05;;;5.28;;
3465;SDS011;1747;48.884;9.160;2023-06-10T05:14:29;5.32;;;4.82;;
3465;SDS011;1747;48.884;9.160;2023-06-10T05:16:56;6.22;;;5.15;;
3465;SDS011;1747;48.884;9.160;2023-06-10T05:19:23;5.47;;;4.85;;
3465;SDS011;1747;48.884;9.160;2023-06-10T05:21:51;6.80;;;5.00;;
3465;SDS011;1747;48.884;9.160;2023-06-10T05:24:18;5.30;;;4.80;;
3465;SDS011;1747;48.884;9.160;2023-06-10T05:26:46;8.02;;;5.10;;
3465;SDS011;1747;48.884;9.160;2023-06-10T05:29:13;5.15;;;4.57;;
3465;SDS011;1747;48.884;9.160;2023-06-10T05:31:41;6.53;;;5.07;;
3465;SDS011;1747;48.884;9.160;2023-06-10T05:34:08;6.05;;;5.00;;
3465;SDS011;1747;48.884;9.160;2023-06-10T05:36:35;5.95;;;4.70;;
3465;SDS011;1747;48.884;9.160;2023-06-10T05:39:03;6.05;;;5.07;;
3465;SDS011;1747;48.884;9.160;2023-06-10T05:41:30;6.30;;;5.47;;
3465;SDS011;1747;48.884;9.160;2023-06-10T05:43:57;5.78;;;4.95;;
3465;SDS011;1747;48.884;9.160;2023-06-10T05:46:23;5.15;;;4.65;;
3465;SDS011;1747;48.884;9.160;2023-06-10T05:48:50;5.63;;;5.00;;
3465;SDS011;1747;48.884;9.160;2023-06-10T05:51:17;6.70;;;4.78;;
3465;SDS011;1747;48.884;9.160;2023-06-10T05:53:44;4.95;;;4.47;;
3465;SDS011;1747;48.884;9.160;2023-06-10T05:56:12;5.60;;;4.53;;
3465;SDS011;1747;48.884;9.160;2023-06-10T05:58:39;6.53;;;5.00;;
3465;SDS011;1747;48.884;9.160;2023-06-10T06:01:06;5.78;;;5.15;;
3465;SDS011;1747;48.884;9.160;2023-06-10T06:03:33;5.47;;;4.93;;
3465;SDS011;1747;48.884;9.160;2023-06-10T06:05:59;5.25;;;4.72;;
3465;SDS011;1747;48.884;9.160;2023-06-10T06:08:26;5.18;;;4.68;;
3465;SDS011;1747;48.884;9.160;2023-06-10T06:10:53;6.00;;;5.25;;
3465;SDS011;1747;48.884;9.160;2023-06-10T06:13:21;5.95;;;5.35;;
3465;SDS011;1747;48.884;9.160;2023-06-10T06:15:48;6.80;;;4.97;;
3465;SDS011;1747;48.884;9.160;2023-06-10T06:18:16;4.90;;;4.30;;
3465;SDS011;1747;48.884;9.160;2023-06-10T06:20:43;5.82;;;5.20;;
3465;SDS011;1747;48.884;9.160;2023-06-10T06:23:10;4.85;;;4.30;;
3465;SDS011;1747;48.884;9.160;2023-06-10T06:25:37;5.03;;;4.53;;
3465;SDS011;1747;48.884;9.160;2023-06-10T06:28:04;5.30;;;4.72;;
3465;SDS011;1747;48.884;9.160;2023-06-10T06:30:33;5.13;;;4.55;;
3465;SDS011;1747;48.884;9.160;2023-06-10T06:33:02;5.25;;;4.70;;
3465;SDS011;1747;48.884;9.160;2023-06-10T06:35:30;5.28;;;4.40;;
3465;SDS011;1747;48.884;9.160;2023-06-10T06:38:01;5.18;;;4.68;;
3465;SDS011;1747;48.884;9.160;2023-06-10T06:40:33;5.13;;;4.63;;
3465;SDS011;1747;48.884;9.160;2023-06-10T06:43:00;5.43;;;4.43;;
3465;SDS011;1747;48.884;9.160;2023-06-10T06:45:27;5.07;;;4.57;;
3465;SDS011;1747;48.884;9.160;2023-06-10T06:47:56;5.53;;;4.53;;
3465;SDS011;1747;48.884;9.160;2023-06-10T06:50:22;5.65;;;4.93;;
3465;SDS011;1747;48.884;9.160;2023-06-10T06:52:52;4.80;;;4.30;;
3465;SDS011;1747;48.884;9.160;2023-06-10T06:55:19;5.03;;;4.45;;
3465;SDS011;1747;48.884;9.160;2023-06-10T06:57:48;4.63;;;4.22;;
3465;SDS011;1747;48.884;9.160;2023-06-10T07:00:15;8.00;;;5.18;;
3465;SDS011;1747;48.884;9.160;2023-06-10T07:02:42;7.35;;;4.40;;
3465;SDS011;1747;48.884;9.160;2023-06-10T07:05:11;5.88;;;4.82;;
3465;SDS011;1747;48.884;9.160;2023-06-10T07:07:38;5.20;;;4.70;;
3465;SDS011;1747;48.884;9.160;2023-06-10T07:10:07;7.78;;;4.70;;
3465;SDS011;1747;48.884;9.160;2023-06-10T07:12:34;5.22;;;4.72;;
3465;SDS011;1747;48.884;9.160;2023-06-10T07:15:01;5.35;;;4.85;;
3465;SDS011;1747;48.884;9.160;2023-06-10T07:17:28;5.43;;;4.93;;
3465;SDS011;1747;48.884;9.160;2023-06-10T07:19:56;5.97;;;4.72;;
3465;SDS011;1747;48.884;9.160;2023-06-10T07:22:30;6.55;;;5.03;;
3465;SDS011;1747;48.884;9.160;2023-06-10T07:24:57;6.40;;;4.72;;
3465;SDS011;1747;48.884;9.160;2023-06-10T07:27:26;6.63;;;4.68;;
3465;SDS011;1747;48.884;9.160;2023-06-10T07:29:52;5.35;;;4.80;;
3465;SDS011;1747;48.884;9.160;2023-06-10T07:32:19;6.72;;;5.30;;
3465;SDS011;1747;48.884;9.160;2023-06-10T07:34:48;5.75;;;5.10;;
3465;SDS011;1747;48.884;9.160;2023-06-10T07:37:15;5.93;;;5.20;;
3465;SDS011;1747;48.884;9.160;2023-06-10T07:39:43;6.55;;;5.43;;
3465;SDS011;1747;48.884;9.160;2023-06-10T07:42:10;5.18;;;4.68;;
3465;SDS011;1747;48.884;9.160;2023-06-10T07:44:37;6.82;;;5.28;;
3465;SDS011;1747;48.884;9.160;2023-06-10T07:47:04;5.22;;;4.72;;
3465;SDS011;1747;48.884;9.160;2023-06-10T07:49:31;5.15;;;4.50;;
3465;SDS011;1747;48.884;9.160;2023-06-10T07:51:58;7.97;;;5.50;;
3465;SDS011;1747;48.884;9.160;2023-06-10T07:54:25;5.78;;;4.60;;
3465;SDS011;1747;48.884;9.160;2023-06-10T07:56:53;8.98;;;5.28;;
3465;SDS011;1747;48.884;9.160;2023-06-10T07:59:20;6.47;;;5.35;;
3465;SDS011;1747;48.884;9.160;2023-06-10T08:01:46;6.05;;;5.45;;
3465;SDS011;1747;48.884;9.160;2023-06-10T08:04:13;5.25;;;4.63;;
3465;SDS011;1747;48.884;9.160;2023-06-10T08:06:40;6.80;;;5.25;;
3465;SDS011;1747;48.884;9.160;2023-06-10T08:09:07;5.93;;;5.22;;
3465;SDS011;1747;48.884;9.160;2023-06-10T08:11:33;7.32;;;5.82;;
3465;SDS011;1747;48.884;9.160;2023-06-10T08:14:02;6.78;;;5.45;;
3465;SDS011;1747;48.884;9.160;2023-06-10T08:16:28;6.68;;;5.88;;
3465;SDS011;1747;48.884;9.160;2023-06-10T08:18:55;6.13;;;5.50;;
3465;SDS011;1747;48.884;9.160;2023-06-10T08:21:22;6.18;;;5.57;;
3465;SDS011;1747;48.884;9.160;2023-06-10T08:23:52;6.82;;;5.57;;
3465;SDS011;1747;48.884;9.160;2023-06-10T08:26:21;6.15;;;5.03;;
3465;SDS011;1747;48.884;9.160;2023-06-10T08:28:48;7.32;;;5.45;;
3465;SDS011;1747;48.884;9.160;2023-06-10T08:31:16;8.18;;;5.60;;
3465;SDS011;1747;48.884;9.160;2023-06-10T08:33:43;6.13;;;5.50;;
3465;SDS011;1747;48.884;9.160;2023-06-10T08:36:10;6.05;;;5.45;;
3465;SDS011;1747;48.884;9.160;2023-06-10T08:38:37;8.02;;;5.65;;
3465;SDS011;1747;48.884;9.160;2023-06-10T08:41:04;6.15;;;5.57;;
3465;SDS011;1747;48.884;9.160;2023-06-10T08:43:33;6.05;;;5.38;;
3465;SDS011;1747;48.884;9.160;2023-06-10T08:46:03;7.80;;;5.15;;
3465;SDS011;1747;48.884;9.160;2023-06-10T08:48:32;6.00;;;5.40;;
3465;SDS011;1747;48.884;9.160;2023-06-10T08:51:02;6.55;;;5.20;;
3465;SDS011;1747;48.884;9.160;2023-06-10T08:53:30;5.90;;;5.22;;
3465;SDS011;1747;48.884;9.160;2023-06-10T08:56:00;6.88;;;5.43;;
3465;SDS011;1747;48.884;9.160;2023-06-10T08:58:29;6.40;;;5.80;;
3465;SDS011;1747;48.884;9.160;2023-06-10T09:00:58;6.28;;;5.55;;
3465;SDS011;1747;48.884;9.160;2023-06-10T09:03:25;6.40;;;5.70;;
3465;SDS011;1747;48.884;9.160;2023-06-10T09:05:53;8.57;;;5.38;;
3465;SDS011;1747;48.884;9.160;2023-06-10T09:08:22;6.43;;;5.80;;
3465;SDS011;1747;48.884;9.160;2023-06-10T09:10:49;5.90;;;5.30;;
3465;SDS011;1747;48.884;9.160;2023-06-10T09:13:17;6.45;;;5.82;;
3465;SDS011;1747;48.884;9.160;2023-06-10T09:15:44;6.10;;;5.57;;
3465;SDS011;1747;48.884;9.160;2023-06-10T09:18:12;6.03;;;5.38;;
3465;SDS011;1747;48.884;9.160;2023-06-10T09:20:39;7.55;;;5.55;;
3465;SDS011;1747;48.884;9.160;2023-06-10T09:23:07;5.68;;;5.18;;
3465;SDS011;1747;48.884;9.160;2023-06-10T09:25:35;6.90;;;5.60;;
3465;SDS011;1747;48.884;9.160;2023-06-10T09:28:03;5.53;;;5.05;;
3465;SDS011;1747;48.884;9.160;2023-06-10T09:30:31;5.80;;;5.20;;
3465;SDS011;1747;48.884;9.160;2023-06-10T09:33:00;5.68;;;5.18;;
3465;SDS011;1747;48.884;9.160;2023-06-10T09:35:28;7.55;;;5.25;;
3465;SDS011;1747;48.884;9.160;2023-06-10T09:37:56;5.90;;;5.30;;
3465;SDS011;1747;48.884;9.160;2023-06-10T09:40:25;5.63;;;5.13;;
3465;SDS011;1747;48.884;9.160;2023-06-10T09:42:53;6.50;;;4.90;;
3465;SDS011;1747;48.884;9.160;2023-06-10T09:45:28;6.32;;;5.60;;
3465;SDS011;1747;48.884;9.160;2023-06-10T09:47:56;6.13;;;5.55;;
3465;SDS011;1747;48.884;9.160;2023-06-10T09:50:23;6.03;;;5.43;;
3465;SDS011;1747;48.884;9.160;2023-06-10T09:52:50;6.25;;;5.65;;
3465;SDS011;1747;48.884;9.160;2023-06-10T09:55:17;6.78;;;4.72;;
3465;SDS011;1747;48.884;9.160;2023-06-10T09:57:45;5.68;;;5.13;;
3465;SDS011;1747;48.884;9.160;2023-06-10T10:00:15;6.35;;;5.47;;
3465;SDS011;1747;48.884;9.160;2023-06-10T10:02:46;7.47;;;5.22;;
3465;SDS011;1747;48.884;9.160;2023-06-10T10:05:14;5.95;;;5.35;;
3465;SDS011;1747;48.884;9.160;2023-06-10T10:07:41;7.72;;;5.32;;
3465;SDS011;1747;48.884;9.160;2023-06-10T10:10:08;5.60;;;5.10;;
3465;SDS011;1747;48.884;9.160;2023-06-10T10:12:36;11.90;;;7.38;;
3465;SDS011;1747;48.884;9.160;2023-06-10T10:15:07;6.30;;;5.70;;
3465;SDS011;1747;48.884;9.160;2023-06-10T10:17:36;7.65;;;5.13;;
3465;SDS011;1747;48.884;9.160;2023-06-10T10:20:06;5.90;;;5.40;;
3465;SDS011;1747;48.884;9.160;2023-06-10T10:22:35;5.82;;;5.13;;
3465;SDS011;1747;48.884;9.160;2023-06-10T10:25:05;6.95;;;5.07;;
3465;SDS011;1747;48.884;9.160;2023-06-10T10:27:39;10.40;;;6.35;;
3465;SDS011;1747;48.884;9.160;2023-06-10T10:30:11;5.88;;;5.38;;
3465;SDS011;1747;48.884;9.160;2023-06-10T10:32:45;5.82;;;5.32;;
3465;SDS011;1747;48.884;9.160;2023-06-10T10:35:21;6.07;;;4.90;;
3465;SDS011;1747;48.884;9.160;2023-06-10T10:37:52;5.32;;;4.82;;
3465;SDS011;1747;48.884;9.160;2023-06-10T10:40:21;5.90;;;5.32;;
3465;SDS011;1747;48.884;9.160;2023-06-10T10:42:49;4.80;;;4.40;;
3465;SDS011;1747;48.884;9.160;2023-06-10T10:45:18;4.93;;;4.43;;
3465;SDS011;1747;48.884;9.160;2023-06-10T10:47:52;5.43;;;4.93;;
3465;SDS011;1747;48.884;9.160;2023-06-10T10:50:20;5.63;;;5.07;;
3465;SDS011;1747;48.884;9.160;2023-06-10T10:52:52;4.70;;;4.30;;
3465;SDS011;1747;48.884;9.160;2023-06-10T10:55:21;5.65;;;5.13;;
3465;SDS011;1747;48.884;9.160;2023-06-10T10:57:55;5.97;;;5.10;;
3465;SDS011;1747;48.884;9.160;2023-06-10T11:00:29;6.07;;;5.47;;
3465;SDS011;1747;48.884;9.160;2023-06-10T11:03:03;5.82;;;5.20;;
3465;SDS011;1747;48.884;9.160;2023-06-10T11:05:37;5.57;;;5.00;;
3465;SDS011;1747;48.884;9.160;2023-06-10T11:08:05;5.88;;;5.38;;
3465;SDS011;1747;48.884;9.160;2023-06-10T11:10:33;6.80;;;5.13;;
3465;SDS011;1747;48.884;9.160;2023-06-10T11:13:06;7.03;;;5.30;;
3465;SDS011;1747;48.884;9.160;2023-06-10T11:15:40;5.38;;;4.88;;
3465;SDS011;1747;48.884;9.160;2023-06-10T11:18:13;6.10;;;5.00;;
3465;SDS011;1747;48.884;9.160;2023-06-10T11:20:44;5.28;;;4.78;;
3465;SDS011;1747;48.884;9.160;2023-06-10T11:23:38;7.38;;;4.50;;
3465;SDS011;1747;48.884;9.160;2023-06-10T11:26:09;5.47;;;4.97;;
3465;SDS011;1747;48.884;9.160;2023-06-10T11:28:40;5.50;;;4.95;;
3465;SDS011;1747;48.884;9.160;2023-06-10T11:31:10;5.35;;;4.95;;
3465;SDS011;1747;48.884;9.160;2023-06-10T11:33:45;7.13;;;4.97;;
3465;SDS011;1747;48.884;9.160;2023-06-10T11:36:13;5.38;;;4.80;;
3465;SDS011;1747;48.884;9.160;2023-06-10T11:38:40;5.50;;;4.97;;
3465;SDS011;1747;48.884;9.160;2023-06-10T11:41:07;5.03;;;4.43;;
3465;SDS011;1747;48.884;9.160;2023-06-10T11:43:34;5.45;;;4.95;;
3465;SDS011;1747;48.884;9.160;2023-06-10T11:46:01;10.27;;;4.38;;
3465;SDS011;1747;48.884;9.160;2023-06-10T11:48:29;4.70;;;4.30;;
3465;SDS011;1747;48.884;9.160;2023-06-10T11:50:56;4.72;;;4.30;;
3465;SDS011;1747;48.884;9.160;2023-06-10T11:53:23;4.90;;;4.47;;
3465;SDS011;1747;48.884;9.160;2023-06-10T11:55:50;5.40;;;4.90;;
3465;SDS011;1747;48.884;9.160;2023-06-10T11:58:18;4.75;;;4.35;;
3465;SDS011;1747;48.884;9.160;2023-06-10T12:00:49;8.73;;;4.30;;
3465;SDS011;1747;48.884;9.160;2023-06-10T12:03:18;6.10;;;4.88;;
3465;SDS011;1747;48.884;9.160;2023-06-10T12:05:58;4.70;;;4.25;;
3465;SDS011;1747;48.884;9.160;2023-06-10T12:08:26;6.78;;;4.47;;
3465;SDS011;1747;48.884;9.160;2023-06-10T12:10:53;7.07;;;4.40;;
3465;SDS011;1747;48.884;9.160;2023-06-10T12:13:21;6.80;;;4.65;;
3465;SDS011;1747;48.884;9.160;2023-06-10T12:15:48;4.90;;;4.40;;
3465;SDS011;1747;48.884;9.160;2023-06-10T12:18:16;4.93;;;4.53;;
3465;SDS011;1747;48.884;9.160;2023-06-10T12:20:44;4.82;;;4.40;;
3465;SDS011;1747;48.884;9.160;2023-06-10T12:23:12;5.20;;;4.30;;
3465;SDS011;1747;48.884;9.160;2023-06-10T12:25:39;7.03;;;4.68;;
3465;SDS011;1747;48.884;9.160;2023-06-10T12:28:20;5.68;;;4.38;;
3465;SDS011;1747;48.884;9.160;2023-06-10T12:30:50;5.20;;;4.70;;
3465;SDS011;1747;48.884;9.160;2023-06-10T12:33:20;4.93;;;4.43;;
3465;SDS011;1747;48.884;9.160;2023-06-10T12:35:48;4.53;;;4.13;;
3465;SDS011;1747;48.884;9.160;2023-06-10T12:38:22;5.03;;;4.53;;
3465;SDS011;1747;48.884;9.160;2023-06-10T12:40:52;4.40;;;4.00;;
3465;SDS011;1747;48.884;9.160;2023-06-10T12:43:22;4.85;;;4.45;;
3465;SDS011;1747;48.884;9.160;2023-06-10T12:45:49;6.28;;;3.97;;
3465;SDS011;1747;48.884;9.160;2023-06-10T12:48:20;4.50;;;4.10;;
3465;SDS011;1747;48.884;9.160;2023-06-10T12:50:50;4.07;;;3.78;;
3465;SDS011;1747;48.884;9.160;2023-06-10T12:53:28;5.00;;;4.50;;
3465;SDS011;1747;48.884;9.160;2023-06-10T12:55:55;4.13;;;3.70;;
3465;SDS011;1747;48.884;9.160;2023-06-10T12:58:22;4.10;;;3.80;;
3465;SDS011;1747;48.884;9.160;2023-06-10T13:00:49;5.22;;;3.60;;
3465;SDS011;1747;48.884;9.160;2023-06-10T13:03:17;4.15;;;3.83;;
3465;SDS011;1747;48.884;9.160;2023-06-10T13:05:44;6.22;;;3.83;;
3465;SDS011;1747;48.884;9.160;2023-06-10T13:08:11;4.43;;;4.03;;
3465;SDS011;1747;48.884;9.160;2023-06-10T13:10:39;4.53;;;4.13;;
3465;SDS011;1747;48.884;9.160;2023-06-10T13:13:06;4.10;;;3.80;;
3465;SDS011;1747;48.884;9.160;2023-06-10T13:15:34;4.13;;;3.83;;
3465;SDS011;1747;48.884;9.160;2023-06-10T13:18:02;4.47;;;4.07;;
3465;SDS011;1747;48.884;9.160;2023-06-10T13:20:29;4.20;;;3.80;;
3465;SDS011;1747;48.884;9.160;2023-06-10T13:22:56;5.15;;;3.65;;
3465;SDS011;1747;48.884;9.160;2023-06-10T13:25:22;4.65;;;4.05;;
3465;SDS011;1747;48.884;9.160;2023-06-10T13:27:51;4.80;;;4.07;;
3465;SDS011;1747;48.884;9.160;2023-06-10T13:30:18;4.82;;;4.00;;
3465;SDS011;1747;48.884;9.160;2023-06-10T13:32:45;4.43;;;4.13;;
3465;SDS011;1747;48.884;9.160;2023-06-10T13:35:13;4.32;;;3.20;;
3465;SDS011;1747;48.884;9.160;2023-06-10T13:37:40;4.05;;;3.70;;
3465;SDS011;1747;48.884;9.160;2023-06-10T13:40:07;4.28;;;3.95;;
3465;SDS011;1747;48.884;9.160;2023-06-10T13:42:35;4.47;;;4.10;;
3465;SDS011;1747;48.884;9.160;2023-06-10T13:45:03;4.60;;;4.20;;
3465;SDS011;1747;48.884;9.160;2023-06-10T13:47:31;4.18;;;3.72;;
3465;SDS011;1747;48.884;9.160;2023-06-10T13:49:58;4.32;;;3.92;;
3465;SDS011;1747;48.884;9.160;2023-06-10T13:52:24;4.75;;;4.18;;
3465;SDS011;1747;48.884;9.160;2023-06-10T13:54:51;4.65;;;4.25;;
3465;SDS011;1747;48.884;9.160;2023-06-10T13:57:18;5.95;;;4.05;;
3465;SDS011;1747;48.884;9.160;2023-06-10T13:59:45;4.40;;;4.00;;
3465;SDS011;1747;48.884;9.160;2023-06-10T14:02:13;4.68;;;4.07;;
3465;SDS011;1747;48.884;9.160;2023-06-10T14:04:40;4.53;;;4.13;;
3465;SDS011;1747;48.884;9.160;2023-06-10T14:07:06;4.68;;;4.28;;
3465;SDS011;1747;48.884;9.160;2023-06-10T14:09:33;4.47;;;4.07;;
3465;SDS011;1747;48.884;9.160;2023-06-10T14:12:00;4.03;;;3.72;;
3465;SDS011;1747;48.884;9.160;2023-06-10T14:14:28;4.63;;;4.30;;
3465;SDS011;1747;48.884;9.160;2023-06-10T14:16:55;4.18;;;3.88;;
3465;SDS011;1747;48.884;9.160;2023-06-10T14:19:23;4.65;;;4.35;;
3465;SDS011;1747;48.884;9.160;2023-06-10T14:21:50;4.82;;;4.43;;
3465;SDS011;1747;48.884;9.160;2023-06-10T14:24:18;4.85;;;4.50;;
3465;SDS011;1747;48.884;9.160;2023-06-10T14:26:45;4.60;;;4.20;;
3465;SDS011;1747;48.884;9.160;2023-06-10T14:29:12;4.78;;;4.40;;
3465;SDS011;1747;48.884;9.160;2023-06-10T14:31:40;4.90;;;4.50;;
3465;SDS011;1747;48.884;9.160;2023-06-10T14:34:07;4.85;;;4.45;;
3465;SDS011;1747;48.884;9.160;2023-06-10T14:36:35;4.80;;;4.40;;
3465;SDS011;1747;48.884;9.160;2023-06-10T14:39:02;5.00;;;4.50;;
3465;SDS011;1747;48.884;9.160;2023-06-10T14:41:29;5.18;;;4.35;;
3465;SDS011;1747;48.884;9.160;2023-06-10T14:43:56;5.07;;;4.68;;
3465;SDS011;1747;48.884;9.160;2023-06-10T14:46:22;4.80;;;4.40;;
3465;SDS011;1747;48.884;9.160;2023-06-10T14:48:49;4.55;;;4.20;;
3465;SDS011;1747;48.884;9.160;2023-06-10T14:51:16;4.88;;;4.47;;
3465;SDS011;1747;48.884;9.160;2023-06-10T14:53:44;4.65;;;4.25;;
3465;SDS011;1747;48.884;9.160;2023-06-10T14:56:11;4.60;;;4.20;;
3465;SDS011;1747;48.884;9.160;2023-06-10T14:58:38;4.90;;;4.50;;
3465;SDS011;1747;48.884;9.160;2023-06-10T15:01:05;4.65;;;4.25;;
3465;SDS011;1747;48.884;9.160;2023-06-10T15:03:32;4.65;;;4.30;;
3465;SDS011;1747;48.884;9.160;2023-06-10T15:05:59;7.57;;;4.75;;
3465;SDS011;1747;48.884;9.160;2023-06-10T15:08:26;5.38;;;4.65;;
3465;SDS011;1747;48.884;9.160;2023-06-10T15:10:55;4.47;;;4.07;;
3465;SDS011;1747;48.884;9.160;2023-06-10T15:13:22;4.55;;;4.15;;
3465;SDS011;1747;48.884;9.160;2023-06-10T15:15:49;4.53;;;4.22;;
3465;SDS011;1747;48.884;9.160;2023-06-10T15:18:16;4.72;;;4.43;;
3465;SDS011;1747;48.884;9.160;2023-06-10T15:20:43;4.65;;;4.25;;